Time;durP1;ratioP1;P1;durP2;ratioP2;P2;SDS_P1;SDS_P2;PMS_P1;PMS_P2;Temp;Humidity;BMP_temperature;BMP_pressure;BME280_temperature;BME280_humidity;BME280_pressure;Samples;Min_cycle;Max_cycle;Signal;HPM_P1;HPM_P2
2022/07/22 00:00:25;;;;;;;;;;;;;;;14.43;58.95;97436.88;110230;1247;59686;-70
2022/07/22 00:03:03;;;;;;;;;;;;;;;14.32;59.33;97437.98;110377;1247;70756;-70
2022/07/22 00:05:34;;;;;;;;;;;;;;;14.25;59.38;97438.23;110284;1247;68695;-69
2022/07/22 00:08:04;;;;;;;;;;;;;;;14.21;60.67;97441.11;110091;1247;69491;-68
2022/07/22 00:10:33;;;;;;;;;;;;;;;14.16;59.73;97443.06;110310;1245;59731;-71
2022/07/22 00:13:03;;;;;;;;;;;;;;;14.12;61.00;97451.38;110209;1248;59684;-66
2022/07/22 00:15:33;;;;;;;;;;;;;;;14.05;61.81;97455.63;110453;1244;71835;-70
2022/07/22 00:18:04;;;;;;;;;;;;;;;13.98;60.84;97458.64;110388;1246;67542;-68
2022/07/22 00:20:33;;;;;;;;;;;;;;;13.90;61.14;97463.90;110511;1244;69314;-70
2022/07/22 00:23:03;;;;;;;;;;;;;;;13.81;61.93;97459.79;110067;1249;59711;-68
2022/07/22 00:25:33;;;;;;;;;;;;;;;13.75;62.24;97462.32;110248;1248;59685;-69
2022/07/22 00:28:03;;;;;;;;;;;;;;;13.72;59.54;97463.48;110506;1244;70771;-68
2022/07/22 00:30:33;;;;;;;;;;;;;;;13.69;59.68;97461.30;110369;1245;67589;-67
2022/07/22 00:33:03;;;;;;;;;;;;;;;13.63;59.00;97464.10;110247;1247;69233;-67
2022/07/22 00:35:32;;;;;;;;;;;;;;;13.53;60.50;97462.33;110289;1247;59763;-68
2022/07/22 00:38:09;;;;;;;;;;;;;;;13.47;60.33;97461.08;110294;1247;59672;-66
2022/07/22 00:40:39;;;;;;;;;;;;;;;13.44;60.37;97463.06;110265;1248;71504;-71
2022/07/22 00:43:09;;;;;;;;;;;;;;;13.41;61.68;97462.94;110366;1247;68363;-71
2022/07/22 00:45:40;;;;;;;;;;;;;;;13.39;60.89;97463.14;110312;1247;69419;-68
2022/07/22 00:48:10;;;;;;;;;;;;;;;13.41;59.24;97467.70;110343;1247;59846;-68
2022/07/22 00:50:40;;;;;;;;;;;;;;;13.46;59.68;97468.86;110574;1244;59692;-69
2022/07/22 00:53:10;;;;;;;;;;;;;;;13.49;60.86;97472.23;110264;1244;70818;-67
2022/07/22 00:55:41;;;;;;;;;;;;;;;13.49;62.30;97472.25;110493;1245;68686;-70
2022/07/22 00:58:12;;;;;;;;;;;;;;;13.48;61.27;97472.38;110371;1244;69426;-69
2022/07/22 01:00:41;;;;;;;;;;;;;;;13.47;60.01;97474.76;110198;1248;59736;-68
2022/07/22 01:03:11;;;;;;;;;;;;;;;13.45;58.43;97472.23;110295;1245;59642;-68
2022/07/22 01:05:41;;;;;;;;;;;;;;;13.45;59.46;97469.64;110209;1248;70731;-66
2022/07/22 01:08:11;;;;;;;;;;;;;;;13.42;62.40;97466.42;110376;1247;67647;-67
2022/07/22 01:10:41;;;;;;;;;;;;;;;13.36;63.16;97465.50;110244;1248;69395;-70
2022/07/22 01:13:11;;;;;;;;;;;;;;;13.32;63.43;97462.65;110308;1247;59695;-69
2022/07/22 01:15:41;;;;;;;;;;;;;;;13.27;63.63;97465.88;110259;1245;59693;-69
2022/07/22 01:18:11;;;;;;;;;;;;;;;13.22;63.13;97466.80;110248;1247;71542;-67
2022/07/22 01:20:40;;;;;;;;;;;;;;;13.18;62.35;97465.32;110246;1247;68024;-68
2022/07/22 01:23:11;;;;;;;;;;;;;;;13.18;62.39;97461.31;110466;1247;69371;-65
2022/07/22 01:25:40;;;;;;;;;;;;;;;13.20;62.01;97462.42;110400;1245;60558;-72
2022/07/22 01:28:09;;;;;;;;;;;;;;;13.19;62.74;97466.48;110164;1247;59746;-70
2022/07/22 01:30:39;;;;;;;;;;;;;;;13.18;63.15;97463.80;110510;1244;70523;-66
2022/07/22 01:33:09;;;;;;;;;;;;;;;13.17;61.33;97463.02;110271;1247;68565;-68
2022/07/22 01:35:38;;;;;;;;;;;;;;;13.16;60.41;97459.60;110193;1247;68492;-67
2022/07/22 01:38:08;;;;;;;;;;;;;;;13.16;61.94;97461.65;110364;1244;59736;-66
2022/07/22 01:40:39;;;;;;;;;;;;;;;13.11;61.29;97467.70;110218;1247;59641;-67
2022/07/22 01:43:09;;;;;;;;;;;;;;;12.99;62.21;97473.58;110462;1244;70464;-67
2022/07/22 01:45:38;;;;;;;;;;;;;;;12.92;62.26;97474.02;110384;1245;68610;-67
2022/07/22 01:48:08;;;;;;;;;;;;;;;12.84;62.40;97471.65;110403;1244;68466;-67
2022/07/22 01:50:37;;;;;;;;;;;;;;;12.80;62.47;97470.76;110240;1247;59751;-69
2022/07/22 01:53:07;;;;;;;;;;;;;;;12.79;62.47;97479.03;110425;1245;59702;-70
2022/07/22 01:55:36;;;;;;;;;;;;;;;12.80;62.90;97477.08;110435;1246;71488;-66
2022/07/22 01:58:06;;;;;;;;;;;;;;;12.80;63.90;97476.52;110202;1248;68282;-67
2022/07/22 02:00:36;;;;;;;;;;;;;;;12.77;63.30;97479.02;110149;1248;69449;-67
2022/07/22 02:03:06;;;;;;;;;;;;;;;12.73;64.11;97478.42;110260;1247;59687;-67
2022/07/22 02:05:36;;;;;;;;;;;;;;;12.70;65.32;97479.07;110451;1247;59745;-67
2022/07/22 02:08:14;;;;;;;;;;;;;;;12.69;65.88;97474.38;110129;1247;71995;-66
2022/07/22 02:11:03;;;;;;;;;;;;;;;12.69;66.48;97471.79;110587;1247;68630;-67
2022/07/22 02:13:33;;;;;;;;;;;;;;;12.69;65.82;97466.02;110236;1248;69221;-68
2022/07/22 02:16:03;;;;;;;;;;;;;;;12.70;64.02;97463.00;109891;1250;59760;-66
2022/07/22 02:18:36;;;;;;;;;;;;;;;12.72;61.34;97460.70;110211;1248;59666;-71
2022/07/22 02:21:06;;;;;;;;;;;;;;;12.75;61.61;97465.36;110122;1247;71562;-66
2022/07/22 02:23:36;;;;;;;;;;;;;;;12.78;61.10;97470.21;110072;1248;68778;-67
2022/07/22 02:26:05;;;;;;;;;;;;;;;12.81;63.50;97468.41;110293;1246;69415;-68
2022/07/22 02:28:36;;;;;;;;;;;;;;;12.81;65.35;97472.81;110268;1247;59753;-66
2022/07/22 02:31:06;;;;;;;;;;;;;;;12.77;65.63;97474.48;110207;1247;59673;-67
2022/07/22 02:33:35;;;;;;;;;;;;;;;12.68;65.36;97479.02;110220;1248;71517;-66
2022/07/22 02:36:06;;;;;;;;;;;;;;;12.61;65.40;97480.02;110258;1245;68547;-67
2022/07/22 02:38:37;;;;;;;;;;;;;;;12.53;65.08;97482.91;110511;1245;68884;-67
2022/07/22 02:41:08;;;;;;;;;;;;;;;12.43;64.80;97489.79;110486;1245;59745;-67
2022/07/22 02:43:41;;;;;;;;;;;;;;;12.36;63.05;97488.05;110239;1247;59673;-74
2022/07/22 02:46:10;;;;;;;;;;;;;;;12.35;64.09;97493.03;110257;1247;70715;-67
2022/07/22 02:48:40;;;;;;;;;;;;;;;12.30;64.95;97497.66;110401;1247;67833;-67
2022/07/22 02:51:12;;;;;;;;;;;;;;;12.19;64.40;97503.04;110540;1245;68279;-67
2022/07/22 02:53:42;;;;;;;;;;;;;;;12.02;65.15;97503.09;110489;1247;59755;-68
2022/07/22 02:56:11;;;;;;;;;;;;;;;11.93;65.68;97502.20;110365;1247;59684;-66
2022/07/22 02:58:42;;;;;;;;;;;;;;;11.88;67.22;97506.11;110218;1247;70763;-66
2022/07/22 03:01:12;;;;;;;;;;;;;;;11.86;66.88;97509.63;110242;1248;67498;-69
2022/07/22 03:04:02;;;;;;;;;;;;;;;11.84;68.90;97511.67;110335;1247;69420;-66
2022/07/22 03:06:33;;;;;;;;;;;;;;;11.83;68.71;97505.11;109953;1250;59777;-68
2022/07/22 03:09:08;;;;;;;;;;;;;;;11.84;64.54;97502.58;110429;1247;59691;-70
2022/07/22 03:11:38;;;;;;;;;;;;;;;11.92;63.76;97506.85;110206;1247;70730;-67
2022/07/22 03:14:09;;;;;;;;;;;;;;;12.03;63.28;97501.45;110429;1247;67178;-68
2022/07/22 03:16:39;;;;;;;;;;;;;;;12.17;63.72;97503.50;110329;1247;68680;-68
2022/07/22 03:19:09;;;;;;;;;;;;;;;12.28;63.19;97509.20;110038;1250;59696;-68
2022/07/22 03:21:39;;;;;;;;;;;;;;;12.34;63.03;97509.34;110251;1247;59675;-67
2022/07/22 03:24:08;;;;;;;;;;;;;;;12.42;62.39;97508.91;110204;1247;71503;-67
2022/07/22 03:26:38;;;;;;;;;;;;;;;12.52;62.89;97515.14;110302;1247;68720;-67
2022/07/22 03:29:08;;;;;;;;;;;;;;;12.55;63.42;97510.91;110177;1247;68603;-70
2022/07/22 03:31:38;;;;;;;;;;;;;;;12.57;63.04;97513.66;110159;1247;59799;-66
2022/07/22 03:34:07;;;;;;;;;;;;;;;12.60;63.17;97509.02;110243;1247;59653;-67
2022/07/22 03:36:39;;;;;;;;;;;;;;;12.65;63.30;97508.11;110202;1247;70730;-68
2022/07/22 03:39:09;;;;;;;;;;;;;;;12.70;63.39;97508.95;110312;1247;68408;-68
2022/07/22 03:41:38;;;;;;;;;;;;;;;12.74;63.60;97511.28;110447;1246;68537;-69
2022/07/22 03:44:08;;;;;;;;;;;;;;;12.77;64.26;97515.58;110234;1246;59759;-67
2022/07/22 03:46:37;;;;;;;;;;;;;;;12.81;63.60;97517.02;110251;1247;59731;-66
2022/07/22 03:49:06;;;;;;;;;;;;;;;12.86;63.25;97515.42;110200;1247;71354;-67
2022/07/22 03:51:35;;;;;;;;;;;;;;;12.92;62.97;97515.80;110223;1247;67131;-67
2022/07/22 03:54:05;;;;;;;;;;;;;;;12.99;61.50;97515.90;110378;1247;68642;-67
2022/07/22 03:56:36;;;;;;;;;;;;;;;13.08;60.61;97518.14;110145;1247;59771;-66
2022/07/22 03:59:05;;;;;;;;;;;;;;;13.19;60.17;97515.70;110254;1245;59703;-67
2022/07/22 04:01:35;;;;;;;;;;;;;;;13.28;59.76;97514.64;110215;1247;71708;-66
2022/07/22 04:04:05;;;;;;;;;;;;;;;13.38;60.17;97521.38;110275;1247;67564;-65
2022/07/22 04:06:38;;;;;;;;;;;;;;;13.49;59.55;97517.44;110386;1247;69307;-68
2022/07/22 04:09:11;;;;;;;;;;;;;;;13.59;59.19;97518.71;110461;1247;59733;-65
2022/07/22 04:11:41;;;;;;;;;;;;;;;13.70;59.01;97519.39;110104;1247;59655;-67
2022/07/22 04:14:10;;;;;;;;;;;;;;;13.79;58.99;97518.12;110443;1245;71543;-66
2022/07/22 04:16:40;;;;;;;;;;;;;;;13.89;58.92;97521.11;110469;1247;69007;-67
2022/07/22 04:19:11;;;;;;;;;;;;;;;13.98;58.40;97525.38;110533;1247;69308;-67
2022/07/22 04:21:54;;;;;;;;;;;;;;;14.11;57.86;97532.20;110454;1247;59608;-67
2022/07/22 04:24:27;;;;;;;;;;;;;;;14.20;57.77;97531.54;110230;1247;59734;-66
2022/07/22 04:26:57;;;;;;;;;;;;;;;14.35;58.05;97532.48;110356;1246;71233;-66
2022/07/22 04:29:26;;;;;;;;;;;;;;;14.56;57.26;97528.70;110219;1247;68543;-66
2022/07/22 04:31:55;;;;;;;;;;;;;;;14.82;56.59;97534.98;110253;1247;69450;-67
2022/07/22 04:34:30;;;;;;;;;;;;;;;15.01;56.31;97536.12;110480;1247;59630;-67
2022/07/22 04:37:00;;;;;;;;;;;;;;;15.13;56.21;97534.37;110267;1247;59718;-74
2022/07/22 04:39:31;;;;;;;;;;;;;;;15.22;56.10;97530.00;110425;1247;71564;-69
2022/07/22 04:42:01;;;;;;;;;;;;;;;15.31;55.67;97524.83;110479;1245;67780;-67
2022/07/22 04:44:30;;;;;;;;;;;;;;;15.42;55.62;97523.66;110410;1247;69261;-65
2022/07/22 04:47:00;;;;;;;;;;;;;;;15.56;55.28;97520.96;110272;1247;59721;-65
2022/07/22 04:49:36;;;;;;;;;;;;;;;15.73;54.85;97524.19;110486;1247;59665;-67
2022/07/22 04:52:06;;;;;;;;;;;;;;;15.91;54.59;97528.51;110521;1247;71596;-65
2022/07/22 04:54:42;;;;;;;;;;;;;;;16.10;52.71;97529.52;110214;1248;67807;-68
2022/07/22 04:57:12;;;;;;;;;;;;;;;16.27;53.28;97529.23;110190;1247;68440;-67
2022/07/22 04:59:41;;;;;;;;;;;;;;;16.45;52.73;97526.16;110410;1246;60391;-68
2022/07/22 05:02:10;;;;;;;;;;;;;;;16.59;52.55;97526.17;110274;1247;59711;-69
2022/07/22 05:04:41;;;;;;;;;;;;;;;16.76;52.27;97528.55;110293;1247;71548;-67
2022/07/22 05:07:10;;;;;;;;;;;;;;;16.96;51.91;97533.93;110284;1247;68576;-66
2022/07/22 05:09:39;;;;;;;;;;;;;;;17.15;51.25;97532.96;110110;1248;68463;-65
2022/07/22 05:12:11;;;;;;;;;;;;;;;17.36;51.35;97534.75;110267;1247;59726;-70
2022/07/22 05:14:40;;;;;;;;;;;;;;;17.66;50.34;97534.62;110256;1247;59714;-66
2022/07/22 05:17:10;;;;;;;;;;;;;;;18.03;49.45;97532.85;110261;1247;71091;-65
2022/07/22 05:19:56;;;;;;;;;;;;;;;18.54;51.70;97535.58;110284;1247;68560;-67
2022/07/22 05:22:25;;;;;;;;;;;;;;;19.08;49.21;97532.39;110254;1247;69219;-67
2022/07/22 05:24:54;;;;;;;;;;;;;;;19.66;47.39;97533.41;110340;1247;59763;-67
2022/07/22 05:27:24;;;;;;;;;;;;;;;20.20;44.63;97536.89;110313;1245;59692;-67
2022/07/22 05:29:53;;;;;;;;;;;;;;;20.57;44.09;97538.34;110181;1248;70849;-66
2022/07/22 05:32:22;;;;;;;;;;;;;;;20.96;42.37;97539.33;110228;1247;68552;-67
2022/07/22 05:34:54;;;;;;;;;;;;;;;21.18;42.07;97540.51;110217;1247;68817;-66
2022/07/22 05:37:23;;;;;;;;;;;;;;;21.23;39.74;97542.20;110442;1247;59672;-68
2022/07/22 05:39:52;;;;;;;;;;;;;;;21.44;41.25;97543.96;110225;1247;59688;-74
2022/07/22 05:42:21;;;;;;;;;;;;;;;21.46;40.17;97543.34;110304;1246;71207;-74
2022/07/22 05:44:50;;;;;;;;;;;;;;;21.58;40.28;97545.65;110140;1248;68510;-67
2022/07/22 05:47:19;;;;;;;;;;;;;;;21.56;39.62;97546.23;110193;1247;69225;-70
2022/07/22 05:49:48;;;;;;;;;;;;;;;21.54;39.81;97545.11;110285;1247;59731;-67
2022/07/22 05:52:18;;;;;;;;;;;;;;;21.39;38.10;97548.20;110277;1247;59751;-70
2022/07/22 05:54:47;;;;;;;;;;;;;;;21.52;38.63;97547.05;110246;1247;70778;-68
2022/07/22 05:57:16;;;;;;;;;;;;;;;21.58;37.05;97544.59;110260;1247;66747;-69
2022/07/22 05:59:45;;;;;;;;;;;;;;;21.73;38.08;97543.61;110335;1247;69034;-69
2022/07/22 06:02:15;;;;;;;;;;;;;;;21.75;38.15;97541.96;110331;1247;59754;-67
2022/07/22 06:04:46;;;;;;;;;;;;;;;21.78;37.93;97541.20;110272;1247;59688;-70
2022/07/22 06:07:17;;;;;;;;;;;;;;;22.06;38.56;97538.30;110230;1247;70796;-67
2022/07/22 06:09:49;;;;;;;;;;;;;;;22.48;36.91;97542.56;110576;1247;67727;-68
2022/07/22 06:12:18;;;;;;;;;;;;;;;22.86;35.23;97544.72;110461;1246;69360;-69
2022/07/22 06:14:47;;;;;;;;;;;;;;;23.25;35.00;97543.72;110343;1247;59757;-67
2022/07/22 06:17:16;;;;;;;;;;;;;;;23.53;34.19;97537.38;110245;1247;59699;-66
2022/07/22 06:19:46;;;;;;;;;;;;;;;23.85;34.72;97538.19;110454;1247;70837;-72
2022/07/22 06:22:17;;;;;;;;;;;;;;;24.30;33.92;97536.11;110261;1247;68356;-66
2022/07/22 06:24:46;;;;;;;;;;;;;;;24.74;33.44;97536.87;110542;1247;67681;-72
2022/07/22 06:27:16;;;;;;;;;;;;;;;25.12;30.59;97541.45;110499;1247;59820;-71
2022/07/22 06:29:46;;;;;;;;;;;;;;;25.30;30.01;97539.02;110160;1247;59677;-72
2022/07/22 06:32:15;;;;;;;;;;;;;;;25.78;30.93;97537.63;110259;1247;71621;-68
2022/07/22 06:34:48;;;;;;;;;;;;;;;25.85;29.39;97535.16;110439;1247;67069;-68
2022/07/22 06:37:17;;;;;;;;;;;;;;;26.37;27.95;97533.66;110173;1247;68551;-70
2022/07/22 06:39:57;;;;;;;;;;;;;;;26.49;26.61;97538.31;110461;1246;59689;-69
2022/07/22 06:42:35;;;;;;;;;;;;;;;26.82;25.93;97540.84;110168;1247;59611;-69
2022/07/22 06:45:10;;;;;;;;;;;;;;;26.93;26.11;97539.60;110265;1247;70502;-68
2022/07/22 06:48:02;;;;;;;;;;;;;;;27.19;26.54;97537.23;110327;1247;68426;-68
2022/07/22 06:50:31;;;;;;;;;;;;;;;26.98;26.63;97540.32;110231;1246;68450;-68
2022/07/22 06:53:04;;;;;;;;;;;;;;;27.26;27.00;97541.20;110423;1247;59750;-69
2022/07/22 06:55:34;;;;;;;;;;;;;;;27.57;27.60;97537.36;110242;1247;59687;-69
2022/07/22 06:58:06;;;;;;;;;;;;;;;27.94;27.21;97533.70;110484;1247;71519;-71
2022/07/22 07:00:35;;;;;;;;;;;;;;;28.19;26.75;97537.52;110483;1247;67625;-66
2022/07/22 07:03:25;;;;;;;;;;;;;;;28.19;27.27;97539.94;110439;1245;68801;-68
2022/07/22 07:06:08;;;;;;;;;;;;;;;28.59;26.82;97541.02;110228;1247;59813;-69
2022/07/22 07:09:04;;;;;;;;;;;;;;;28.63;25.70;97540.47;110290;1245;60039;-69
2022/07/22 07:11:34;;;;;;;;;;;;;;;28.91;26.27;97545.25;110248;1247;70579;-70
2022/07/22 07:14:08;;;;;;;;;;;;;;;29.35;25.47;97544.59;110264;1247;68378;-72
2022/07/22 07:16:37;;;;;;;;;;;;;;;29.78;24.61;97547.56;110546;1247;69153;-69
2022/07/22 07:19:07;;;;;;;;;;;;;;;29.94;24.06;97547.36;110278;1247;59750;-68
2022/07/22 07:21:36;;;;;;;;;;;;;;;29.89;23.43;97546.82;110310;1247;59709;-68
2022/07/22 07:24:05;;;;;;;;;;;;;;;29.77;23.50;97548.34;110216;1247;71480;-71
2022/07/22 07:26:35;;;;;;;;;;;;;;;29.64;23.61;97546.69;110248;1247;67756;-70
2022/07/22 07:29:04;;;;;;;;;;;;;;;29.14;23.44;97546.36;110248;1247;68595;-69
2022/07/22 07:31:35;;;;;;;;;;;;;;;29.11;23.45;97547.67;110405;1247;59751;-68
2022/07/22 07:34:09;;;;;;;;;;;;;;;29.33;23.71;97551.20;110231;1247;59732;-71
2022/07/22 07:36:39;;;;;;;;;;;;;;;29.71;23.09;97549.00;110180;1245;71035;-68
2022/07/22 07:39:09;;;;;;;;;;;;;;;30.06;22.07;97542.83;109620;1247;839701;-68
2022/07/22 07:41:38;;;;;;;;;;;;;;;30.29;22.22;97544.73;110145;1247;69138;-68
2022/07/22 07:44:07;;;;;;;;;;;;;;;30.60;21.94;97539.56;110170;1247;59766;-68
2022/07/22 07:46:38;;;;;;;;;;;;;;;30.38;21.76;97541.82;110051;1247;59605;-68
2022/07/22 07:49:07;;;;;;;;;;;;;;;30.17;22.19;97537.75;110151;1247;70188;-66
2022/07/22 07:51:36;;;;;;;;;;;;;;;30.32;22.11;97537.94;110115;1248;67636;-70
2022/07/22 07:54:05;;;;;;;;;;;;;;;30.75;22.12;97540.16;109967;1250;69234;-68
2022/07/22 07:56:38;;;;;;;;;;;;;;;31.00;21.68;97538.91;110151;1247;59690;-68
2022/07/22 07:59:07;;;;;;;;;;;;;;;31.02;21.06;97534.80;110163;1247;59631;-71
2022/07/22 08:01:57;;;;;;;;;;;;;;;30.94;20.52;97532.58;110202;1247;70595;-69
2022/07/22 08:04:30;;;;;;;;;;;;;;;30.66;20.23;97526.42;110184;1247;67807;-70
2022/07/22 08:07:09;;;;;;;;;;;;;;;30.21;21.06;97530.91;110168;1247;67801;-67
2022/07/22 08:09:40;;;;;;;;;;;;;;;30.20;21.63;97530.12;110156;1247;59700;-68
2022/07/22 08:12:17;;;;;;;;;;;;;;;30.42;21.80;97527.94;110146;1247;61185;-68
2022/07/22 08:15:20;;;;;;;;;;;;;;;30.33;21.79;97527.20;110107;1248;71615;-68
2022/07/22 08:17:53;;;;;;;;;;;;;;;30.24;21.50;97531.39;110293;1247;67719;-71
2022/07/22 08:20:24;;;;;;;;;;;;;;;30.98;21.25;97535.17;110025;1247;69516;-70
2022/07/22 08:22:53;;;;;;;;;;;;;;;31.56;20.49;97537.70;110149;1247;59699;-69
2022/07/22 08:25:23;;;;;;;;;;;;;;;31.45;19.80;97534.71;110240;1247;59672;-70
2022/07/22 08:27:52;;;;;;;;;;;;;;;31.61;19.96;97529.17;110121;1247;71395;-72
2022/07/22 08:30:23;;;;;;;;;;;;;;;32.00;19.88;97526.51;110186;1247;67437;-69
2022/07/22 08:32:52;;;;;;;;;;;;;;;31.93;19.65;97529.22;110048;1248;69220;-69
2022/07/22 08:35:21;;;;;;;;;;;;;;;32.28;19.77;97530.54;110225;1247;59698;-68
2022/07/22 08:37:50;;;;;;;;;;;;;;;32.05;18.76;97527.04;110234;1247;59752;-68
2022/07/22 08:40:20;;;;;;;;;;;;;;;32.64;19.03;97527.66;110187;1247;70352;-67
2022/07/22 08:42:50;;;;;;;;;;;;;;;32.34;18.74;97529.00;110414;1246;68011;-71
2022/07/22 08:45:20;;;;;;;;;;;;;;;32.63;19.25;97530.73;110480;1247;68448;-69
2022/07/22 08:47:51;;;;;;;;;;;;;;;32.47;18.98;97530.97;110190;1247;59782;-69
2022/07/22 08:50:55;;;;;;;;;;;;;;;32.09;19.62;97529.52;109865;1251;59738;-73
2022/07/22 08:53:41;;;;;;;;;;;;;;;31.95;19.78;97530.01;110384;1246;71396;-69
2022/07/22 08:56:12;;;;;;;;;;;;;;;31.82;19.69;97530.74;110478;1245;67792;-71
2022/07/22 08:58:41;;;;;;;;;;;;;;;31.26;20.51;97526.48;110191;1247;69479;-70
2022/07/22 09:01:11;;;;;;;;;;;;;;;31.13;20.30;97526.27;110260;1247;59720;-69
2022/07/22 09:03:45;;;;;;;;;;;;;;;31.16;20.76;97524.44;110434;1247;59668;-68
2022/07/22 09:06:14;;;;;;;;;;;;;;;31.21;20.98;97522.27;110306;1247;71612;-69
2022/07/22 09:08:50;;;;;;;;;;;;;;;31.61;20.30;97526.23;110230;1247;68513;-69
2022/07/22 09:11:38;;;;;;;;;;;;;;;32.08;19.52;97517.67;110284;1245;69738;-70
2022/07/22 09:14:45;;;;;;;;;;;;;;;31.81;19.90;97524.14;110314;1247;59693;-70
2022/07/22 09:17:37;;;;;;;;;;;;;;;30.92;21.25;97518.34;110430;1247;59627;-69
2022/07/22 09:20:44;;;;;;;;;;;;;;;31.37;21.32;97520.80;109894;1251;72803;-69
2022/07/22 09:23:44;;;;;;;;;;;;;;;31.74;20.63;97524.23;109773;1250;68449;-69
2022/07/22 09:26:30;;;;;;;;;;;;;;;31.30;20.70;97530.21;110067;1247;68560;-70
2022/07/22 09:29:18;;;;;;;;;;;;;;;32.00;20.01;97525.77;110370;1246;59622;-70
2022/07/22 09:32:08;;;;;;;;;;;;;;;32.32;19.80;97523.83;110387;1245;59686;-70
2022/07/22 09:35:04;;;;;;;;;;;;;;;32.03;20.05;97515.69;110526;1245;71361;-70
2022/07/22 09:37:53;;;;;;;;;;;;;;;32.13;20.07;97521.38;110273;1246;68536;-70
2022/07/22 09:40:24;;;;;;;;;;;;;;;32.32;19.49;97517.50;110210;1247;69321;-70
2022/07/22 09:42:55;;;;;;;;;;;;;;;32.05;20.13;97519.13;110405;1244;59713;-72
2022/07/22 09:45:27;;;;;;;;;;;;;;;32.75;19.33;97520.23;110237;1247;59765;-69
2022/07/22 09:47:57;;;;;;;;;;;;;;;32.99;19.25;97519.04;110095;1247;70809;-69
2022/07/22 09:50:44;;;;;;;;;;;;;;;33.18;18.79;97516.33;110433;1245;68574;-70
2022/07/22 09:53:33;;;;;;;;;;;;;;;33.10;19.36;97507.96;110223;1247;69474;-70
2022/07/22 09:56:06;;;;;;;;;;;;;;;33.19;18.97;97509.25;110009;1247;59733;-72
2022/07/22 09:58:36;;;;;;;;;;;;;;;33.08;18.69;97504.46;110444;1245;59705;-69
2022/07/22 10:01:12;;;;;;;;;;;;;;;32.94;19.08;97504.26;110202;1247;71530;-71
2022/07/22 10:03:42;;;;;;;;;;;;;;;32.49;18.31;97503.75;110273;1247;68147;-70
2022/07/22 10:06:12;;;;;;;;;;;;;;;32.73;19.18;97505.31;110314;1245;69476;-70
2022/07/22 10:08:41;;;;;;;;;;;;;;;32.45;19.70;97506.13;110206;1247;59763;-71
2022/07/22 10:11:11;;;;;;;;;;;;;;;32.85;19.10;97502.28;110256;1247;59657;-73
2022/07/22 10:13:41;;;;;;;;;;;;;;;32.79;19.28;97498.15;110264;1245;70596;-70
2022/07/22 10:16:11;;;;;;;;;;;;;;;32.91;19.09;97496.62;110350;1245;67803;-70
2022/07/22 10:18:44;;;;;;;;;;;;;;;33.09;19.12;97496.02;110432;1244;68652;-69
2022/07/22 10:21:14;;;;;;;;;;;;;;;33.89;18.83;97493.95;110386;1244;59719;-69
2022/07/22 10:24:02;;;;;;;;;;;;;;;34.23;18.15;97493.52;110183;1245;59776;-69
2022/07/22 10:26:51;;;;;;;;;;;;;;;34.43;17.46;97488.38;110090;1247;70799;-67
2022/07/22 10:29:27;;;;;;;;;;;;;;;34.96;18.03;97494.67;110239;1246;68667;-70
2022/07/22 10:32:14;;;;;;;;;;;;;;;34.85;16.76;97493.98;110430;1245;69416;-71
2022/07/22 10:34:43;;;;;;;;;;;;;;;33.61;17.46;97487.31;110443;1244;59668;-69
2022/07/22 10:37:34;;;;;;;;;;;;;;;33.72;17.87;97491.15;110236;1247;59707;-70
2022/07/22 10:40:21;;;;;;;;;;;;;;;33.65;17.74;97485.56;110461;1246;71674;-66
2022/07/22 10:43:10;;;;;;;;;;;;;;;33.44;18.21;97480.48;110281;1246;68383;-70
2022/07/22 10:45:41;;;;;;;;;;;;;;;33.46;19.44;97478.40;110450;1246;68686;-69
2022/07/22 10:48:11;;;;;;;;;;;;;;;33.25;18.68;97478.77;110523;1245;59748;-70
2022/07/22 10:50:41;;;;;;;;;;;;;;;33.70;17.97;97478.71;110474;1246;59681;-70
2022/07/22 10:53:13;;;;;;;;;;;;;;;33.79;18.17;97476.90;110331;1247;71582;-69
2022/07/22 10:56:02;;;;;;;;;;;;;;;34.07;19.00;97477.19;110146;1247;68683;-69
2022/07/22 10:58:34;;;;;;;;;;;;;;;34.30;18.93;97470.39;110241;1246;69409;-69
2022/07/22 11:01:04;;;;;;;;;;;;;;;34.40;18.63;97465.18;110424;1247;59740;-69
2022/07/22 11:03:34;;;;;;;;;;;;;;;34.57;18.37;97471.64;110240;1247;59996;-69
2022/07/22 11:06:35;;;;;;;;;;;;;;;34.84;17.41;97476.21;110466;1242;70854;-68
2022/07/22 11:09:05;;;;;;;;;;;;;;;34.77;17.13;97468.63;109621;1254;68027;-67
2022/07/22 11:11:38;;;;;;;;;;;;;;;35.01;17.69;97466.36;109655;1253;69628;-69
2022/07/22 11:14:13;;;;;;;;;;;;;;;35.43;17.04;97464.12;109659;1253;59781;-68
2022/07/22 11:16:43;;;;;;;;;;;;;;;35.11;16.83;97461.63;109674;1253;59625;-69
2022/07/22 11:19:12;;;;;;;;;;;;;;;35.34;16.72;97458.17;109644;1253;70797;-67
2022/07/22 11:21:41;;;;;;;;;;;;;;;35.61;16.80;97457.02;109670;1253;67824;-69
2022/07/22 11:24:11;;;;;;;;;;;;;;;36.01;16.37;97452.58;109650;1253;68682;-68
2022/07/22 11:26:41;;;;;;;;;;;;;;;36.28;16.35;97458.68;109684;1253;59790;-70
2022/07/22 11:29:15;;;;;;;;;;;;;;;36.39;16.08;97456.75;109539;1254;59892;-70
2022/07/22 11:31:44;;;;;;;;;;;;;;;36.31;15.46;97455.34;109604;1253;72175;-71
2022/07/22 11:34:15;;;;;;;;;;;;;;;36.37;16.22;97451.52;109546;1254;67703;-71
2022/07/22 11:36:44;;;;;;;;;;;;;;;36.50;16.09;97447.02;109635;1253;69526;-69
2022/07/22 11:39:15;;;;;;;;;;;;;;;36.77;16.19;97445.41;109601;1254;59746;-70
2022/07/22 11:41:44;;;;;;;;;;;;;;;36.77;16.72;97441.64;109509;1254;59716;-71
2022/07/22 11:44:17;;;;;;;;;;;;;;;36.47;16.45;97433.44;109602;1250;71722;-71
2022/07/22 11:46:46;;;;;;;;;;;;;;;36.29;15.94;97436.08;110265;1247;67932;-69
2022/07/22 11:49:16;;;;;;;;;;;;;;;36.12;15.70;97436.79;110222;1247;68814;-70
2022/07/22 11:51:44;;;;;;;;;;;;;;;35.81;16.04;97434.19;110288;1247;59764;-69
2022/07/22 11:54:14;;;;;;;;;;;;;;;35.72;16.71;97429.95;110219;1247;59743;-70
2022/07/22 11:56:43;;;;;;;;;;;;;;;35.15;16.53;97428.64;110567;1244;71034;-70
2022/07/22 11:59:13;;;;;;;;;;;;;;;35.29;16.46;97431.58;110476;1245;68586;-69
2022/07/22 12:01:42;;;;;;;;;;;;;;;35.54;16.68;97431.42;110455;1245;68717;-69
2022/07/22 12:04:12;;;;;;;;;;;;;;;35.59;15.81;97428.71;110408;1245;59720;-69
2022/07/22 12:06:42;;;;;;;;;;;;;;;35.83;16.53;97416.89;110295;1247;59614;-70
2022/07/22 12:09:16;;;;;;;;;;;;;;;35.98;15.92;97413.73;110399;1246;71560;-70
2022/07/22 12:11:49;;;;;;;;;;;;;;;36.28;16.43;97406.86;110430;1244;67873;-72
2022/07/22 12:14:19;;;;;;;;;;;;;;;36.18;15.46;97406.02;110426;1244;68652;-70
2022/07/22 12:17:01;;;;;;;;;;;;;;;36.24;15.73;97400.35;110488;1246;59728;-70
2022/07/22 12:19:31;;;;;;;;;;;;;;;36.40;15.87;97402.38;110239;1244;59748;-67
2022/07/22 12:22:01;;;;;;;;;;;;;;;36.45;16.00;97400.36;110520;1244;72237;-69
2022/07/22 12:24:38;;;;;;;;;;;;;;;36.07;15.96;97397.89;110381;1247;66899;-71
2022/07/22 12:27:08;;;;;;;;;;;;;;;35.99;16.56;97392.95;110429;1244;69408;-69
2022/07/22 12:29:36;;;;;;;;;;;;;;;36.21;16.49;97388.61;110180;1247;59758;-70
2022/07/22 12:32:06;;;;;;;;;;;;;;;36.18;15.96;97386.33;110492;1245;59640;-68
2022/07/22 12:34:37;;;;;;;;;;;;;;;36.46;16.47;97389.06;110385;1246;71528;-70
2022/07/22 12:37:19;;;;;;;;;;;;;;;35.79;15.74;97385.83;110524;1244;68869;-69
2022/07/22 12:40:03;;;;;;;;;;;;;;;35.90;16.09;97378.00;110422;1245;68872;-69
2022/07/22 12:42:36;;;;;;;;;;;;;;;36.20;17.32;97375.33;110400;1246;59755;-69
2022/07/22 12:45:07;;;;;;;;;;;;;;;36.43;16.12;97374.39;110445;1246;59769;-70
2022/07/22 12:47:45;;;;;;;;;;;;;;;36.27;15.48;97374.00;110435;1244;71573;-71
2022/07/22 12:50:17;;;;;;;;;;;;;;;36.49;16.06;97373.83;110510;1246;68671;-70
2022/07/22 12:52:47;;;;;;;;;;;;;;;36.63;16.04;97365.65;110245;1247;68667;-68
2022/07/22 12:55:37;;;;;;;;;;;;;;;36.69;15.97;97372.53;110521;1245;59693;-70
2022/07/22 12:58:07;;;;;;;;;;;;;;;36.74;15.90;97370.59;110395;1244;59603;-68
2022/07/22 13:00:43;;;;;;;;;;;;;;;36.49;15.75;97370.15;110206;1247;71360;-70
2022/07/22 13:03:12;;;;;;;;;;;;;;;35.98;15.91;97372.55;110129;1247;68620;-69